Tiempo atmosférico en la estación meteorológica de Badajoz Aeropuerto, Badajoz (185 m.)



Fecha
DESCASC
Temp. máxima en grados centígrados (hora)
DESCASC
Temp. mínima en grados centígrados (hora)
DESCASC
Temp. media en grados centígrados
DESCASC
Racha de viento máxima en m/sg (hora)
DESCASC
Velocidad máxima media en intervalos de 10 minutos(hora)
DESCASC
Precipitaciones diarias en mm
DESCASC
Precipitaciones de 00:00 a 06:00 en mm
DESCASC
Precipitaciones de 06:00 a 12:00 en mm
DESCASC
Precipitaciones de 12:00 a 18:00 en mm
DESCASC
Precipitaciones de 18:00 a 24:00 en mm
DESCASC
26-03-2020 21.2 (15:50) 8 (07:40) 14.6 11.39 (16:00) 8.33 (17:00) 0 0 0 0 0
25-03-2020 21.4 (18:00) 7.9 (07:20) 14.6 6.11 (01:30) 4.17 (00:20) 0 0 0 0 0
24-03-2020 19.2 (13:00) 9.4 (05:50) 14.3 14.72 (12:20) 10.28 (11:30) 0 0 0 0 0
23-03-2020 18.7 (16:50) 8.4 (06:10) 13.6 10 (18:00) 6.67 (18:10) 0 0 0 0 0
22-03-2020 17.5 (16:30) 6.5 (07:40) 12 6.11 (17:00) 4.44 (17:20) 0 0 0 0 0
21-03-2020 15.7 (12:30) 8.1 (00:00) 11.9 5.83 (21:40) 4.17 (20:30) 15.6 9.8 0 5.4 0.4
20-03-2020 15.3 (11:40) 10.8 (00:00) 13.1 5.83 (20:50) 3.06 (19:20) 32.2 0 0 15.2 17
19-03-2020 23.1 (15:40) 9.3 (00:00) 16.2 8.89 (09:40) 6.67 (09:40) 0 0 0 0 0
18-03-2020 24.2 (16:40) 10.8 (00:00) 17.5 11.67 (15:00) 7.78 (10:30) 0 0 0 0 0
17-03-2020 20 (16:20) 4 (00:00) 12 15 (12:50) 9.44 (11:20) 0 0 0 0 0
16-03-2020 14 (16:10) 4.4 (00:00) 9.2 16.11 (15:20) 11.67 (15:20) 0.4 0 0 0.2 0.2
15-03-2020 23.4 (15:20) 7.9 (00:00) 15.6 14.17 (20:40) 9.44 (20:50) 0 0 0 0 0
14-03-2020 24 (17:20) 7.4 (00:00) 15.7 5 (17:20) 2.78 (18:00) 0 0 0 0 0
13-03-2020 19 (17:00) 9.7 (05:10) 14.3 6.11 (01:40) 3.61 (01:40) 0 0 0 0 0
12-03-2020 25.9 (14:50) 8.4 (00:00) 17.1 7.22 (15:30) 4.17 (15:40) 0 0 0 0 0
11-03-2020 28 (14:50) 7 (00:00) 17.5 5.83 (14:00) 3.61 (14:30) 0 0 0 0 0
10-03-2020 26.5 (16:10) 5 (00:00) 15.8 4.17 (11:30) 2.5 (19:00) 0 0 0 0 0
09-03-2020 22.3 (16:40) 7.8 (00:00) 15 10.28 (14:10) 7.22 (14:20) 0 0 0 0 0
08-03-2020 19 (15:50) 1.9 (00:00) 10.4 7.22 (15:10) 4.17 (15:20) 0 0 0 0 0
07-03-2020 19.7 (16:10) 5.5 (00:00) 12.6 7.22 (01:10) 5.56 (00:40) 0 0 0 0 0
06-03-2020 18.1 (15:30) 8.2 (00:00) 13.2 14.17 (12:20) 8.33 (13:20) 0 0 0 0 0
05-03-2020 18.5 (15:40) 9.5 (00:00) 14 15.28 (10:00) 10 (13:30) 0 0 0 0 0
04-03-2020 20.7 (15:30) 11.1 (00:00) 15.9 8.61 (15:30) 5 (13:50) 0 0 0 0 0
03-03-2020 19.9 (16:10) 7.6 (00:00) 13.7 12.22 (18:40) 7.22 (18:40) 0 0 0 0 0
02-03-2020 17.2 (15:50) 10 (00:00) 13.6 15.28 (11:30) 10 (11:20) 2.6 2.6 0 0 0
01-03-2020 17.9 (16:40) 11.2 (00:00) 14.5 10.83 (22:40) 4.44 (22:40) 1.2 0 0 0.2 1
29-02-2020 17.1 (13:30) 9.5 (00:00) 13.3 12.22 (12:20) 5.83 (14:50) 1.6 0 0 1.6 0
28-02-2020 22.7 (16:10) 2.9 (00:00) 12.8 5.83 (14:10) 3.89 (17:00) 0 0 0 0 0

Gráficas

Temp. máximas Temp. mínimas Temp. medias Precipitaciones Rachas de viento máximas Velocidades máximas media en intervalos de 10 minutos

Datos horarios

Fecha y hora oficial Temperatura (ºC) Velocidad del viento (km/h) Dirección del viento Racha (km/h) Dirección de racha Precipitación (mm) Presión (hPa) Tendencia (hPa) Humedad (%)
2020-03-28 23:00:00 10.9 2 Norte 6 Este 0 996.2 1.5 70
2020-03-28 22:00:00 12.4 5 Este 8 Nordeste 0 996 1.7 62
2020-03-28 21:00:00 13 4 Nordeste 12 Nordeste 0 995.5 1.6 60
2020-03-28 20:00:00 13.9 10 Nordeste 15 Nordeste 0 994.7 1 58
2020-03-28 19:00:00 16.6 13 Nordeste 22 Este 0 994.3 0.4 48
2020-03-28 18:00:00 19.1 11 Este 26 Este 0 993.9 -0.5 42
2020-03-28 17:00:00 19.2 11 Nordeste 27 Este 0 993.7 -1.1 42
2020-03-28 16:00:00 18.4 12 Este 24 Este 0 993.9 -1.3 45
2020-03-28 15:00:00 18.2 13 Este 36 Nordeste 0 994.4 -1 45
2020-03-28 14:00:00 17.1 14 Este 27 Este 0 994.8 -0.7 51
2020-03-28 13:00:00 15.5 18 Este 29 Este 0 995.2 -0.1 53
2020-03-28 12:00:00 13.6 17 Este 30 Este 0 995.4 0.7 60
2020-03-28 11:00:00 12.3 18 Este 31 Este 0 995.5 1.4 61
2020-03-28 10:00:00 9.4 24 Este 33 Este 0 995.3 1.7 72
2020-03-28 09:00:00 7.2 15 Este 21 Este 0 994.7 1.4 83
2020-03-28 08:00:00 4.6 10 Este 16 Este 0 994.1 1.2 91
2020-03-28 07:00:00 3.9 4 Nordeste 16 Este 0 993.6 0.7 90
2020-03-28 06:00:00 4.6 5 Sudeste 13 Este 0 993.3 0.2 88
2020-03-28 05:00:00 4.5 9 Este 14 Este 0 992.9 -0.2 89
2020-03-28 04:00:00 4.6 11 Nordeste 13 Nordeste 0 992.9 0.2 86
2020-03-28 03:00:00 5.9 5 Este 14 Nordeste 0 993.1 0.7 83
2020-03-28 02:00:00 6.4 11 Este 17 Este 0 993.1 1.1 82
2020-03-28 01:00:00 6.9 13 Este 17 Este 0 992.7 1.4 80
2020-03-28 00:00:00 7.5 7 Nordeste 12 Este 0 992.4 1.8 79
2020-03-27 23:00:00 8.9 10 Este 17 Este 0 992 2.4 74
2020-03-27 22:00:00 11 14 Este 23 Este 0 991.3 2.2 66
2020-03-27 21:00:00 11.9 9 Nordeste 19 Este 0 990.6 2.1 64
2020-03-27 20:00:00 13.6 15 Nordeste 27 Nordeste 0 989.6 1.3 59
2020-03-27 19:00:00 15.2 12 Este 19 Este 0 989.1 0.7 58
2020-03-27 18:00:00 16.6 9 Este 23 Sudeste 0 988.5 -0.2 52
2020-03-27 17:00:00 16.6 13 Este 28 Este 0 988.3 -0.7 52
2020-03-27 16:00:00 16.1 15 Este 28 Este 0 988.4 -0.6 55
2020-03-27 15:00:00 14.9 21 Este 30 Este 0 988.7 -0.3 60
2020-03-27 14:00:00 13.4 13 Este 28 Este 0 989 0.5 65
2020-03-27 13:00:00 13.3 15 Este 21 Este 0 989 1.1 67
2020-03-27 12:00:00 11.9 11 Este 19 Este 0 989 1.6 72
2020-03-27 11:00:00 11 6 Este 12 Este 0 988.5 1.2 72
2020-03-27 10:00:00 9.1 4 Noroeste 12 Noroeste 0 987.9 1.2 83
2020-03-27 09:00:00 8.2 8 Oeste 15 Oeste 0 987.4 0.8 88
2020-03-27 08:00:00 7.5 11 Oeste 21 Oeste 0 987.3 0.7 91
2020-03-27 07:00:00 6.9 3 Sudoeste 7 Oeste 0 986.7 0 93
2020-03-27 06:00:00 6.7 5 Sudoeste 16 Oeste 0 986.6 -0.5 92
2020-03-27 05:00:00 6.3 4 Sudoeste 11 Sudoeste 0 986.6 -1.1 93
2020-03-27 04:00:00 6.6 5 Sudoeste 16 Oeste 0 986.7 -1.3 91
2020-03-27 03:00:00 7.3 4 Sudoeste 13 Oeste 0 987.1 -1 89
2020-03-27 02:00:00 8.3 9 Oeste 18 Oeste 0 987.7 -0.4 86
2020-03-27 01:00:00 8.9 6 Sudoeste 15 Sur 0 988 0 84
2020-03-27 00:00:00 10.1 10 Oeste 27 Oeste 0 988.1 0.2 78
2020-03-26 23:00:00 11.1 16 Oeste 29 Oeste 0 988.1 0.6 75
2020-03-26 22:00:00 12.5 13 Oeste 26 Oeste 0 988 0.6 70
2020-03-26 21:00:00 12.9 12 Oeste 25 Oeste 0 987.9 0.8 67
2020-03-26 20:00:00 14.7 17 Oeste 35 Oeste 0 987.5 0.1 61
2020-03-26 19:00:00 17.4 22 Oeste 39 Oeste 0 987.4 -0.4 48
2020-03-26 18:00:00 19.3 27 Oeste 39 Noroeste 0 987.1 -1.1 43
2020-03-26 17:00:00 20 30 Noroeste 40 Oeste 0 987.4 -1.5 44
2020-03-26 16:00:00 20.9 22 Oeste 41 Oeste 0 987.8 -1.7 41
2020-03-26 15:00:00 20.9 16 Oeste 30 Oeste 0 988.2 -2.1 45
2020-03-26 14:00:00 20.2 15 Oeste 28 Noroeste 0 988.9 -1.9 47
2020-03-26 13:00:00 19.3 15 Oeste 30 Noroeste 0 989.5 -1.5 52
2020-03-26 12:00:00 17.5 11 Oeste 23 Noroeste 0 990.3 -0.8 59
2020-03-26 11:00:00 15.4 9 Oeste 24 Oeste 0 990.8 -0.3 67
2020-03-26 10:00:00 12.8 10 Oeste 23 Oeste 0 991 0.4 76
2020-03-26 09:00:00 10.5 11 Oeste 22 Oeste 0 991.1 0.6 87
2020-03-26 08:00:00 8.4 11 Oeste 17 Oeste 0 991.1 0.6 93
2020-03-26 07:00:00 8.4 8 Oeste 16 Oeste 0 990.6 -0.4 92
2020-03-26 06:00:00 8.8 8 Oeste 14 Oeste 0 990.5 -1.1 92
2020-03-26 05:00:00 9.6 6 Oeste 16 Oeste 0 990.5 -1.4 90
2020-03-26 04:00:00 10.2 7 Oeste 16 Oeste 0 991 -1.1 88
2020-03-26 03:00:00 11.5 8 Oeste 15 Sudoeste 0 991.6 -0.5 85
2020-03-26 02:00:00 12.4 7 Sudoeste 17 Oeste 0 991.9 -0.5 83
2020-03-26 01:00:00 13.2 9 Sudoeste 16 Oeste 0 992.1 -0.3 82
2020-03-26 00:00:00 13.4 5 Sudoeste 14 Sur 0 992.1 0 79
2020-03-25 23:00:00 14.6 5 Sudoeste 20 Oeste 0 992.4 0.5 73
2020-03-25 22:00:00 16 10 Oeste 17 Oeste 0 992.4 0.5 65
2020-03-25 21:00:00 16.3 6 Sudoeste 15 Oeste 0 992.1 0.3 62
2020-03-25 20:00:00 18.2 5 Oeste 13 Oeste 0 991.9 -0.4 54
2020-03-25 19:00:00 20.1 8 Oeste 18 Oeste 0 991.9 -1 47
2020-03-25 18:00:00 21.3 6 Oeste 18 Oeste 0 991.8 -1.5 40
2020-03-25 17:00:00 21 10 Noroeste 19 Noroeste 0 992.3 -1.8 40
2020-03-25 16:00:00 20.9 9 Oeste 16 Oeste 0 992.9 -2.1 42
2020-03-25 15:00:00 20.4 6 Noroeste 14 Oeste 0 993.3 -2 46
2020-03-25 14:00:00 19.5 4 Sudoeste 12 Oeste 0 994.1 -1.3 46
2020-03-25 13:00:00 17.5 5 Noroeste 14 Nordeste 0 995 -0.3 54
2020-03-25 12:00:00 15.9 6 Este 16 Este 0 995.3 0.5 57
2020-03-25 11:00:00 13.6 11 Nordeste 15 Este 0 995.4 0.9 68
2020-03-25 10:00:00 12 10 Nordeste 13 Nordeste 0 995.3 1.3 76
2020-03-25 09:00:00 10.3 6 Este 11 Este 0 994.8 0.8 86
2020-03-25 08:00:00 8.5 7 Este 15 Este 0 994.5 0.8 91
2020-03-25 07:00:00 8 6 Sudeste 8 Sudeste 0 994 0.3 89
2020-03-25 06:00:00 8.2 6 Este 9 Este 0 994 0.3 88
2020-03-25 05:00:00 8.7 0 Calma 10 Sudeste 0 993.7 0.3 85
2020-03-25 04:00:00 8.9 0 Calma 11 Este 0 993.7 0.3 86
2020-03-25 03:00:00 9.6 8 Este 16 Este 0 993.7 0.3 82
2020-03-25 02:00:00 10.4 12 Este 22 Este 0 993.4 0.2 79
2020-03-25 01:00:00 10.9 10 Este 21 Este 0 993.4 0.8 77
2020-03-25 00:00:00 12.7 17 Este 25 Este 0 993.4 1.7 69
2020-03-24 23:00:00 12.8 14 Este 23 Este 0 993.2 2.2 72
2020-03-24 22:00:00 14 12 Este 30 Nordeste 0 992.6 2.1 67
2020-03-24 21:00:00 15.5 16 Nordeste 25 Nordeste 0 991.7 1.6 61
2020-03-24 20:00:00 16 17 Este 29 Este 0 991 1.1 60
2020-03-24 19:00:00 16.8 18 Este 32 Nordeste 0 990.5 0.5 56
2020-03-24 18:00:00 17.4 26 Nordeste 36 Nordeste 0 990.1 0.1 54
2020-03-24 17:00:00 17.3 23 Este 42 Este 0 989.9 -0.3 56
2020-03-24 16:00:00 18.2 32 Este 45 Este 0 990 -0.4 54
2020-03-24 15:00:00 18.5 29 Nordeste 51 Este 0 990 -0.6 52
2020-03-24 14:00:00 18.6 32 Este 52 Este 0 990.2 -0.5 49
2020-03-24 13:00:00 18.7 34 Este 53 Este 0 990.4 0.1 52
2020-03-24 12:00:00 18.8 33 Nordeste 52 Este 0 990.6 0.3 54
2020-03-24 11:00:00 17 33 Este 50 Este 0 990.7 0.3 58
2020-03-24 10:00:00 16.4 27 Este 40 Este 0 990.3 0.2 61
2020-03-24 09:00:00 12.9 13 Nordeste 21 Nordeste 0 990.3 0.5 81
2020-03-24 08:00:00 9.8 10 Nordeste 14 Nordeste 0 990.4 0.4 91
2020-03-24 07:00:00 9.8 0 Calma 6 Nordeste 0 990.1 -0.5 91
2020-03-24 06:00:00 9.6 2 Nordeste 9 Norte 0 989.8 -1 90
2020-03-24 05:00:00 10.2 8 Norte 10 Norte 0 990 -0.9 90
2020-03-24 04:00:00 10.5 3 Oeste 8 Norte 0 990.6 -0.4 91
2020-03-24 03:00:00 10.5 6 Nordeste 13 Este 0 990.8 -0.1 91
2020-03-24 02:00:00 10.1 5 Este 14 Este 0 990.9 0.1 91
2020-03-24 01:00:00 9.7 8 Este 14 Este 0 991 0.5 90
2020-03-24 00:00:00 10.2 7 Sudeste 13 Nordeste 0 990.9 0.6 87
2020-03-23 23:00:00 10.8 4 Nordeste 12 Norte 0 990.8 1 84
2020-03-23 22:00:00 10.5 9 Norte 13 Norte 0 990.5 0.9 83
2020-03-23 21:00:00 11.4 9 Norte 17 Norte 0 990.3 1 80
2020-03-23 20:00:00 14.2 5 Nordeste 12 Este 0 989.8 0.5 68
2020-03-23 19:00:00 16.1 11 Este 34 Este 0 989.6 -0.2 56
2020-03-23 18:00:00 17.4 19 Nordeste 36 Este 0 989.3 -1 52
2020-03-23 17:00:00 17.6 13 Nordeste 28 Nordeste 0 989.3 -1.9 52
2020-03-23 16:00:00 17.3 14 Norte 30 Norte 0 989.8 -2.1 56
2020-03-23 15:00:00 16.8 17 Nordeste 26 Nordeste 0 990.3 -1.8 56
2020-03-23 14:00:00 17.9 14 Este 30 Este 0 991.2 -0.9 50
2020-03-23 13:00:00 18 21 Este 31 Este 0 991.9 -0.2 55
2020-03-23 12:00:00 15.3 16 Nordeste 27 Nordeste 0 992.1 0.3 66
2020-03-23 11:00:00 14.9 10 Este 23 Este 0 992.1 0.6 71
2020-03-23 10:00:00 13.4 13 Nordeste 18 Este 0 992.1 1 78
2020-03-23 09:00:00 10.2 4 Nordeste 8 Nordeste 0 991.8 1 97
2020-03-23 08:00:00 8.8 4 Nordeste 6 Nordeste 0 991.5 1.1 95
2020-03-23 07:00:00 9 2 Sudeste 8 Noroeste 0 991.1 0.7 96
2020-03-23 06:00:00 8.5 4 Noroeste 5 Noroeste 0 990.8 0.4 94
2020-03-23 05:00:00 9.3 2 Este 6 Noroeste 0 990.4 0 95
2020-03-23 04:00:00 9.2 4 Noroeste 9 Noroeste 0 990.4 -0.3 95
2020-03-23 03:00:00 9.7 4 Este 5 Este 0 990.4 -0.5 93
2020-03-23 02:00:00 10.5 3 Este 10 Este 0 990.4 -0.6 91
2020-03-23 01:00:00 11.5 5 Este 14 Este 0 990.7 -0.1 89
2020-03-23 00:00:00 12 2 Norte 9 Sudeste 0 990.9 0.6 86
2020-03-22 23:00:00 12.4 5 Sudeste 16 Este 0 991 1.2 83
2020-03-22 22:00:00 13 2 Sur 6 Sudoeste 0 990.8 1.4 77
2020-03-22 21:00:00 13.3 4 Sudeste 14 Este 0 990.3 1.3 75
2020-03-22 20:00:00 14.2 0 Calma 8 Norte 0 989.8 0.9 65
2020-03-22 19:00:00 14.9 6 Noroeste 15 Noroeste 0 989.4 0.5 58
2020-03-22 18:00:00 16.6 11 Noroeste 21 Norte 0 989 -0.3 51
2020-03-22 17:00:00 16.3 11 Noroeste 22 Norte 0 988.9 -0.9 57
2020-03-22 16:00:00 16.9 6 Noroeste 19 Noroeste 0 988.9 -1.5 52
2020-03-22 15:00:00 16.4 6 Nordeste 18 Nordeste 0 989.3 -1.2 50
2020-03-22 14:00:00 15.8 7 Nordeste 14 Nordeste 0 989.8 -0.7 53
2020-03-22 13:00:00 15.8 9 Este 17 Este 0 990.4 0.2 56
2020-03-22 12:00:00 14.3 9 Nordeste 18 Nordeste 0 990.5 0.7 65
2020-03-22 11:00:00 13.2 10 Este 19 Este 0 990.5 1.1 72
2020-03-22 10:00:00 11.1 8 Nordeste 15 Nordeste 0 990.2 1.2 87
2020-03-22 09:00:00 9.6 10 Nordeste 13 Nordeste 0 989.8 1.1 95
2020-03-22 08:00:00 7.1 6 Nordeste 13 Nordeste 0 989.4 1.3 98
2020-03-22 07:00:00 7.3 6 Nordeste 9 Nordeste 0 989 0.9 97
2020-03-22 06:00:00 7.5 6 Nordeste 7 Nordeste 0 988.7 0.3 96
2020-03-22 05:00:00 8.1 4 Este 11 Nordeste 0 988.1 -0.3 96
2020-03-22 04:00:00 8.6 5 Nordeste 8 Nordeste 0 988.1 -0.3 97
2020-03-22 03:00:00 8.7 6 Norte 9 Este 0 988.4 -0.3 97
2020-03-22 02:00:00 8.5 5 Nordeste 8 Nordeste 0 988.4 -0.4 96
2020-03-22 01:00:00 9.3 6 Este 12 Nordeste 0 988.4 -0.2 95
2020-03-22 00:00:00 9.2 4 Nordeste 9 Norte 0 988.7 0.4 96
2020-03-21 23:00:00 9.5 5 Norte 13 Nordeste 0 988.8 1.1 93
2020-03-21 22:00:00 9.9 8 Nordeste 21 Este 0.2 988.6 1.3 91
2020-03-21 21:00:00 10.4 13 Nordeste 20 Nordeste 0.2 988.3 1.3 91
2020-03-21 20:00:00 11.3 11 Nordeste 19 Nordeste 0 987.7 0.7 86
2020-03-21 19:00:00 12.5 3 Este 12 Este 0 987.3 0 74
2020-03-21 18:00:00 13.5 4 Sur 18 Este 0.2 987 -0.9 72
2020-03-21 17:00:00 11.9 10 Norte 14 Nordeste 2 987 -2.2 86
2020-03-21 16:00:00 12.9 13 Nordeste 20 Nordeste 0 987.3 -1.8 73
2020-03-21 15:00:00 12.1 11 Nordeste 17 Nordeste 1 987.9 -2 80
2020-03-21 14:00:00 10.7 10 Sur 21 Sur 2.2 989.2 -0.9 84
2020-03-21 13:00:00 14.1 8 Sudeste 20 Este 0 989.1 -1.1 64
2020-03-21 12:00:00 14.3 8 Sudeste 15 Sudeste 0 989.9 0.1 65
2020-03-21 11:00:00 12.9 5 Sur 19 Sur 0 990.1 0.8 67
2020-03-21 10:00:00 12.1 8 Sur 15 Sudoeste 0 990.2 1.2 77
2020-03-21 09:00:00 10.1 8 Sur 17 Sudoeste 0 989.8 0.8 85
2020-03-21 08:00:00 8.2 2 Oeste 14 Sur 0 989.3 0.2 92
2020-03-21 07:00:00 8.8 8 Sur 18 Sur 0 989 -0.3 93
2020-03-21 06:00:00 9.6 5 Sudoeste 17 Sur 0 989 -0.3 94
2020-03-21 05:00:00 9.9 5 Sudoeste 13 Sur 0 989.1 -0.6 95
2020-03-21 04:00:00 9.9 5 Sudoeste 17 Oeste 0 989.3 -0.7 96
2020-03-21 03:00:00 10.1 6 Oeste 17 Sudoeste 2.4 989.3 -1 96
2020-03-21 02:00:00 10.7 4 Sudoeste 12 Este 4.6 989.7 -0.1 97
2020-03-21 01:00:00 10.8 8 Este 10 Este 2.8 990 0.2 97
2020-03-21 00:00:00 10.8 2 Este 14 Norte 2.6 990.3 0.6 97
2020-03-20 23:00:00 10.8 8 Nordeste 12 Nordeste 7 989.8 0 96
2020-03-20 22:00:00 11 8 Oeste 18 Noroeste 5.6 989.8 -0.2 95
2020-03-20 21:00:00 11.6 8 Oeste 21 Oeste 1 989.7 -0.4 93
2020-03-20 20:00:00 11.8 6 Oeste 15 Oeste 0.4 989.8 -0.8 93
2020-03-20 19:00:00 12.9 2 Norte 6 Este 0.4 990 -1 94
2020-03-20 18:00:00 13.2 5 Nordeste 6 Este 2.4 990.1 -0.9 94
2020-03-20 17:00:00 13.4 3 Este 9 Sudoeste 6.6 990.6 -1.2 94
2020-03-20 16:00:00 13.9 5 Sur 12 Este 0.8 991 -1.1 91
2020-03-20 15:00:00 14.3 4 Nordeste 6 Nordeste 1 991 -1.4 90
2020-03-20 14:00:00 14 4 Sur 11 Sur 4.4 991.8 -0.5 89
2020-03-20 13:00:00 15 6 Oeste 13 Oeste 0 992.1 0.1 80
2020-03-20 12:00:00 15.2 4 Sudoeste 14 Sur 0 992.4 0.7 78
2020-03-20 11:00:00 14.9 6 Sur 13 Sur 0 992.3 1 79
2020-03-20 10:00:00 14.6 6 Sur 15 Sudoeste 0 992 0.9 81
2020-03-20 09:00:00 14.3 8 Sur 14 Sur 0 991.7 1 82
2020-03-20 08:00:00 13.5 2 Sur 4 Sur 0 991.3 0.7 84
2020-03-20 07:00:00 13.1 2 Sudeste 5 Este 0 991.1 0.3 84
2020-03-20 06:00:00 13.2 4 Sudeste 8 Sudeste 0 990.7 -0.8 83
2020-03-20 05:00:00 13.3 6 Este 8 Este 0 990.6 -1.2 77
2020-03-20 04:00:00 13.3 3 Nordeste 8 Nordeste 0 990.8 -0.9 75
2020-03-20 03:00:00 14 3 Sur 7 Este 0 991.5 -0.6 73
2020-03-20 02:00:00 13.9 5 Sur 11 Sudeste 0 991.8 -0.3 72
2020-03-20 01:00:00 13.9 6 Este 7 Este 0 991.7 -0.7 74
2020-03-20 00:00:00 13.9 3 Norte 8 Norte 0 992.1 -0.1 72
2020-03-19 23:00:00 14.1 3 Nordeste 5 Norte 0 992.1 0 68
2020-03-19 22:00:00 14.5 2 Norte 15 Norte 0 992.4 0.2 67
2020-03-19 21:00:00 16.2 5 Norte 10 Nordeste 0 992.2 0.2 55
2020-03-19 20:00:00 17.9 9 Nordeste 14 Este 0 992.1 -0.4 50
2020-03-19 19:00:00 20.8 11 Este 19 Nordeste 0 992.2 -0.8 40
2020-03-19 18:00:00 22.3 11 Este 19 Este 0 992 -1.6 36
2020-03-19 17:00:00 22.8 12 Este 26 Este 0 992.5 -2.4 35
2020-03-19 16:00:00 22.4 11 Este 25 Este 0 993 -2.8 36
2020-03-19 15:00:00 22.4 15 Nordeste 31 Sudeste 0 993.6 -2.9 36
2020-03-19 14:00:00 21.6 17 Este 29 Nordeste 0 994.9 -1.9 39
2020-03-19 13:00:00 20 17 Nordeste 28 Este 0 995.8 -1.3 43
2020-03-19 12:00:00 18.7 18 Este 27 Este 0 996.5 -0.6 46
2020-03-19 11:00:00 16.9 21 Este 32 Este 0 996.8 -0.2 49
2020-03-19 10:00:00 15.1 22 Este 32 Este 0 997.1 0.1 54
2020-03-19 09:00:00 11.3 7 Este 11 Este 0 997.1 0.1 73
2020-03-19 08:00:00 9.4 7 Sudeste 14 Este 0 997 -0.3 77
2020-03-19 07:00:00 9.9 9 Este 12 Este 0 997 -0.2 75
2020-03-19 06:00:00 10.8 8 Este 17 Este 0 997 -0.6 71
2020-03-19 05:00:00 11.5 10 Este 13 Este 0 997.3 -0.1 69
2020-03-19 04:00:00 12.2 8 Este 13 Este 0 997.2 0 66
2020-03-19 03:00:00 12.6 8 Nordeste 14 Este 0 997.6 0.1 65
2020-03-19 02:00:00 13.6 8 Este 17 Este 0 997.4 -0.4 62
2020-03-19 01:00:00 14.2 9 Este 20 Este 0 997.2 -0.6 64
2020-03-19 00:00:00 14.3 10 Este 15 Nordeste 0 997.5 0.2 65
2020-03-18 23:00:00 13.6 8 Nordeste 16 Nordeste 0 997.8 0.7 74
2020-03-18 22:00:00 15.4 11 Nordeste 17 Nordeste 0 997.8 1.3 67
2020-03-18 21:00:00 16.4 13 Nordeste 23 Nordeste 0 997.3 1.2 62
2020-03-18 20:00:00 18 18 Nordeste 41 Nordeste 0 997.1 0.9 57
2020-03-18 19:00:00 21.5 21 Nordeste 34 Nordeste 0 996.5 -0.2 42
2020-03-18 18:00:00 22.9 23 Nordeste 34 Nordeste 0 996.1 -1.2 37
2020-03-18 17:00:00 24 23 Este 35 Este 0 996.2 -2 33
2020-03-18 16:00:00 24 20 Este 36 Este 0 996.7 -2.1 34
2020-03-18 15:00:00 23.3 22 Este 42 Nordeste 0 997.3 -2.4 38
2020-03-18 14:00:00 22.1 24 Este 38 Este 0 998.2 -1.8 41
2020-03-18 13:00:00 21.2 28 Nordeste 40 Este 0 998.8 -1.1 43
2020-03-18 12:00:00 19.9 26 Este 41 Este 0 999.7 0 46
2020-03-18 11:00:00 18.3 26 Este 39 Este 0 1000 0.8 50
2020-03-18 10:00:00 16.5 26 Este 37 Este 0 999.9 1.1 56
2020-03-18 09:00:00 14 16 Este 24 Este 0 999.7 1.5 66
2020-03-18 08:00:00 12 14 Este 27 Nordeste 0 999.2 1 72
2020-03-18 07:00:00 12.6 19 Nordeste 36 Este 0 998.8 -0.1 69
2020-03-18 06:00:00 13 22 Nordeste 31 Nordeste 0 998.2 -1.1 71
2020-03-18 05:00:00 11.2 11 Nordeste 15 Nordeste 0 998.2 -1 83
2020-03-18 04:00:00 12.7 13 Este 23 Este 0 998.9 -0.1 78
2020-03-18 03:00:00 11.8 14 Este 20 Nordeste 0 999.3 0.2 82
2020-03-18 02:00:00 10.8 12 Este 14 Nordeste 0 999.2 -0.1 78
2020-03-18 01:00:00 11.4 7 Este 18 Nordeste 0 999 -0.5 69
2020-03-18 00:00:00 11 5 Nordeste 10 Nordeste 0 999.1 -0.5 65
2020-03-17 23:00:00 11.3 4 Nordeste 13 Norte 0 999.3 0.2 62
2020-03-17 22:00:00 12.6 11 Norte 16 Nordeste 0 999.5 0.8 59
2020-03-17 21:00:00 12.6 8 Norte 14 Nordeste 0 999.6 1.2 49
2020-03-17 20:00:00 14.9 13 Nordeste 31 Este 0 999.1 1 41
2020-03-17 19:00:00 18.1 24 Este 36 Este 0 998.7 0.7 29
2020-03-17 18:00:00 19 22 Este 40 Este 0 998.4 0.2 30
2020-03-17 17:00:00 19.4 27 Nordeste 41 Este 0 998.1 -0.4 28
2020-03-17 16:00:00 19.5 31 Este 45 Nordeste 0 998 -0.9 27
2020-03-17 15:00:00 17.7 25 Este 41 Este 0 998.2 -0.6 36
2020-03-17 14:00:00 18.3 22 Este 42 Este 0 998.5 -0.2 37
2020-03-17 13:00:00 17 33 Este 54 Este 0 998.9 0.6 38
2020-03-17 12:00:00 15.2 31 Este 46 Este 0 998.8 0.8 47
2020-03-17 11:00:00 13.3 33 Este 42 Este 0 998.7 1.3 53
2020-03-17 10:00:00 10.6 22 Este 32 Este 0 998.3 1.7 66
2020-03-17 09:00:00 8.2 12 Nordeste 23 Nordeste 0 998 1.8 80
2020-03-17 08:00:00 6.3 16 Nordeste 22 Nordeste 0 997.4 1.8 89
2020-03-17 07:00:00 5.6 11 Norte 21 Norte 0 996.6 1.2 89
2020-03-17 06:00:00 4.2 11 Norte 15 Norte 0 996.2 0.8 90
2020-03-17 05:00:00 4.6 5 Este 18 Norte 0 995.6 0.3 89
2020-03-17 04:00:00 4.4 12 Norte 17 Norte 0 995.4 0 89
2020-03-17 03:00:00 4.9 10 Norte 21 Nordeste 0 995.4 -0.1 84
2020-03-17 02:00:00 6.7 12 Nordeste 18 Nordeste 0 995.3 -0.1 82
2020-03-17 01:00:00 6.7 6 Nordeste 17 Nordeste 0 995.4 0.6 81
2020-03-17 00:00:00 8.1 10 Norte 19 Nordeste 0 995.5 1 79
2020-03-16 23:00:00 8.2 12 Norte 24 Norte 0 995.4 1.1 79
2020-03-16 22:00:00 8.6 17 Norte 30 Norte 0 994.8 1.1 77
2020-03-16 21:00:00 8.7 23 Noroeste 39 Noroeste 0 994.5 0.5 83
2020-03-16 20:00:00 9.2 22 Noroeste 33 Noroeste 0.2 994.3 0.5 80
2020-03-16 19:00:00 10.2 17 Noroeste 51 Noroeste 0 993.7 -0.1 67
2020-03-16 18:00:00 11.4 40 Noroeste 54 Noroeste 0 994 -0.1 55
2020-03-16 17:00:00 13 32 Noroeste 55 Noroeste 0 993.8 -0.5 48
2020-03-16 16:00:00 13.9 37 Noroeste 58 Noroeste 0 993.8 -0.5 47
2020-03-16 15:00:00 11.4 34 Noroeste 57 Noroeste 0.2 994.1 -0.5 58
2020-03-16 14:00:00 12.8 36 Noroeste 56 Noroeste 0 994.3 -0.2 42
2020-03-16 13:00:00 13.1 27 Noroeste 54 Noroeste 0 994.3 -0.4 40
2020-03-16 12:00:00 12.9 27 Noroeste 51 Noroeste 0 994.6 -0.1 43
2020-03-16 11:00:00 12.3 32 Noroeste 48 Noroeste 0 994.5 0.3 44
2020-03-16 10:00:00 9.4 21 Noroeste 31 Noroeste 0 994.7 0.5 59
2020-03-16 09:00:00 6.5 16 Oeste 29 Oeste 0 994.7 0.8 76
2020-03-16 08:00:00 4.7 14 Oeste 25 Oeste 0 994.2 0.4 85
2020-03-16 07:00:00 4.5 11 Oeste 24 Oeste 0 994.2 0.3 85
2020-03-16 06:00:00 5.3 12 Oeste 22 Oeste 0 993.9 -0.6 82
2020-03-16 05:00:00 5.1 10 Oeste 22 Oeste 0 993.8 -0.9 83
2020-03-16 04:00:00 4.9 14 Oeste 21 Oeste 0 993.9 -0.9 79
2020-03-16 03:00:00 6.2 9 Oeste 23 Oeste 0 994.5 -0.4 74
2020-03-16 02:00:00 6.8 13 Oeste 21 Noroeste 0 994.7 0.3 73
2020-03-16 01:00:00 6.9 11 Oeste 26 Noroeste 0 994.8 1.1 77
2020-03-16 00:00:00 7.9 19 Oeste 32 Oeste 0 994.9 2.2 75
2020-03-15 23:00:00 9 16 Oeste 33 Noroeste 0 994.4 3 74
2020-03-15 22:00:00 10.6 19 Oeste 42 Noroeste 0 993.7 2.7 73
2020-03-15 21:00:00 12.6 31 Oeste 51 Noroeste 0 992.7 1.7 71
2020-03-15 20:00:00 15.2 25 Noroeste 37 Oeste 0 991.4 0 53
2020-03-15 19:00:00 16.7 18 Oeste 37 Noroeste 0 991 -0.4 54
2020-03-15 18:00:00 18.4 19 Oeste 40 Oeste 0 991 -0.3 57
2020-03-15 17:00:00 18.9 29 Noroeste 49 Noroeste 0 991.4 -1 57
2020-03-15 16:00:00 19.8 27 Noroeste 46 Noroeste 0 991.4 -1.8 58
2020-03-15 15:00:00 23.2 13 Oeste 29 Sudoeste 0 991.3 -2.5 46
2020-03-15 14:00:00 22.2 11 Oeste 25 Oeste 0 992.4 -1.9 50
2020-03-15 13:00:00 21.5 13 Oeste 27 Oeste 0 993.2 -1.3 53
2020-03-15 12:00:00 20.1 9 Oeste 18 Oeste 0 993.8 -0.5 61
2020-03-15 11:00:00 16.8 6 Oeste 11 Noroeste 0 994.3 0.6 74
2020-03-15 10:00:00 13.5 4 Noroeste 7 Noroeste 0 994.5 1 86
2020-03-15 09:00:00 10.6 3 Oeste 6 Noroeste 0 994.3 0.8 94
2020-03-15 08:00:00 9.3 3 Sudoeste 5 Sudoeste 0 993.7 0.3 94
2020-03-15 07:00:00 9.1 2 Sur 5 Sur 0 993.5 -0.3 93
2020-03-15 06:00:00 9.1 0 Calma 4 Sur 0 993.5 -0.7 92
2020-03-15 05:00:00 9.1 3 Sur 4 Norte 0 993.4 -1.1 91
2020-03-15 04:00:00 9.8 2 Nordeste 5 Este 0 993.8 -0.9 89
2020-03-15 03:00:00 10.8 3 Oeste 6 Oeste 0 994.2 -0.7 83
2020-03-15 02:00:00 11.5 2 Sudoeste 5 Este 0 994.5 -0.5 82
2020-03-15 01:00:00 12.6 2 Oeste 6 Sur 0 994.7 -0.4 78
2020-03-15 00:00:00 13.6 0 Calma 7 Sudoeste 0 994.9 0.1 75
2020-03-14 23:00:00 15.3 2 Sudoeste 6 Sudoeste 0 995 0.3 67
2020-03-14 22:00:00 16.9 5 Sudoeste 8 Sudoeste 0 995.1 0.5 61
2020-03-14 21:00:00 17.8 5 Sudoeste 7 Sudoeste 0 994.8 0.1 60
2020-03-14 20:00:00 19.6 4 Sudoeste 10 Noroeste 0 994.7 0 58
2020-03-14 19:00:00 21.6 8 Noroeste 13 Noroeste 0 994.6 -0.6 50
2020-03-14 18:00:00 23.4 10 Noroeste 18 Oeste 0 994.7 -1.3 41
2020-03-14 17:00:00 23.7 8 Noroeste 17 Norte 0 994.7 -2.3 40
2020-03-14 16:00:00 23.2 8 Noroeste 17 Noroeste 0 995.2 -2.4 42
2020-03-14 15:00:00 22 7 Noroeste 14 Noroeste 0 996 -2 46
2020-03-14 14:00:00 20 8 Noroeste 14 Noroeste 0 997 -1.5 54
2020-03-14 13:00:00 17.8 8 Norte 14 Norte 0 997.6 -0.8 66
2020-03-14 12:00:00 15.1 9 Nordeste 14 Nordeste 0 998 0.2 79
2020-03-14 11:00:00 11.9 6 Este 10 Nordeste 0 998.5 1.4 95
2020-03-14 10:00:00 9.7 4 Este 7 Este 0 998.4 1.7 97
2020-03-14 09:00:00 7.8 6 Nordeste 8 Este 0 997.8 1.4 97
2020-03-14 08:00:00 8 3 Este 7 Sudoeste 0 997.1 1.1 94
2020-03-14 07:00:00 9 3 Sudoeste 10 Oeste 0 996.7 0.5 96
2020-03-14 06:00:00 9.3 3 Sudoeste 6 Oeste 0 996.4 -0.4 94
2020-03-14 05:00:00 9.8 3 Sudoeste 8 Sudoeste 0 996 -0.9 94
2020-03-14 04:00:00 10.5 3 Sudoeste 8 Oeste 0 996.2 -0.7 93
2020-03-14 03:00:00 11.4 4 Sudoeste 12 Oeste 0 996.8 -0.1 92
2020-03-14 02:00:00 11.8 5 Sudoeste 11 Sudoeste 0 996.9 0.1 91
2020-03-14 01:00:00 12.4 6 Sudoeste 13 Oeste 0 996.9 0.5 90
2020-03-14 00:00:00 12.7 4 Sudoeste 10 Sudoeste 0 996.9 1 88
2020-03-13 23:00:00 13.5 4 Sudoeste 10 Sur 0 996.8 1.2 85
2020-03-13 22:00:00 14.1 5 Sudoeste 12 Sudoeste 0 996.4 0.9 84
2020-03-13 21:00:00 14.7 6 Sur 9 Sudoeste 0 995.9 0.6 82
2020-03-13 20:00:00 15.6 3 Sudoeste 13 Sudoeste 0 995.6 0.3 78
2020-03-13 19:00:00 17 9 Oeste 18 Oeste 0 995.5 -0.1 72
2020-03-13 18:00:00 17.6 13 Oeste 20 Noroeste 0 995.3 -0.7 69
2020-03-13 17:00:00 18.9 10 Oeste 19 Noroeste 0 995.3 -1.4 64
2020-03-13 16:00:00 18.2 10 Oeste 19 Noroeste 0 995.6 -1.6 66
2020-03-13 15:00:00 17 8 Oeste 18 Noroeste 0 996 -1.6 69
2020-03-13 14:00:00 15.6 7 Oeste 14 Oeste 0 996.7 -0.7 74
2020-03-13 13:00:00 13.8 6 Sur 10 Oeste 0 997.2 0.1 80
2020-03-13 12:00:00 12.2 4 Oeste 14 Noroeste 0 997.6 1 87
2020-03-13 11:00:00 11.3 7 Oeste 14 Oeste 0 997.4 1.3 90
2020-03-13 10:00:00 10.7 5 Sudoeste 14 Oeste 0 997.1 1.2 94
2020-03-13 09:00:00 10.4 8 Oeste 14 Oeste 0 996.6 0.9 95
2020-03-13 08:00:00 10.3 6 Oeste 17 Oeste 0 996.1 0.8 95
2020-03-13 07:00:00 10.4 6 Oeste 11 Oeste 0 995.9 0.6 95
2020-03-13 06:00:00 10 4 Sudoeste 9 Sudoeste 0 995.7 0.2 94
2020-03-13 05:00:00 9.8 4 Sur 11 Noroeste 0 995.3 -0.5 93
2020-03-13 04:00:00 10.5 5 Oeste 12 Oeste 0 995.3 -0.7 91
2020-03-13 03:00:00 11.2 7 Oeste 14 Oeste 0 995.5 -0.5 89
2020-03-13 02:00:00 12.3 9 Oeste 22 Oeste 0 995.8 -0.1 88
2020-03-13 01:00:00 14.3 8 Oeste 13 Sudoeste 0 996 0.3 84
2020-03-13 00:00:00 14.7 10 Oeste 14 Noroeste 0 996 0.6 82
2020-03-12 23:00:00 16 5 Sudoeste 11 Oeste 0 995.9 0.9 73
2020-03-12 22:00:00 17.2 6 Sudoeste 12 Sur 0 995.7 1 68
2020-03-12 21:00:00 18 5 Sudoeste 10 Sur 0 995.4 0.7 65
2020-03-12 20:00:00 19.9 4 Sudoeste 11 Oeste 0 995 0.1 60
2020-03-12 19:00:00 21.9 4 Sudoeste 20 Oeste 0 994.7 -0.3 51
2020-03-12 18:00:00 23.4 9 Oeste 23 Sudoeste 0 994.7 -0.6 46
2020-03-12 17:00:00 24.7 10 Sudoeste 26 Oeste 0 994.9 -1.1 38
2020-03-12 16:00:00 25.3 13 Oeste 26 Oeste 0 995 -1.8 38
2020-03-12 15:00:00 25.8 10 Oeste 22 Oeste 0 995.3 -1.8 37
2020-03-12 14:00:00 25.2 6 Sur 14 Oeste 0 996 -1.2 35
2020-03-12 13:00:00 22.6 4 Oeste 9 Oeste 0 996.8 -0.4 44
2020-03-12 12:00:00 21.2 4 Norte 9 Nordeste 0 997.1 0 49
2020-03-12 11:00:00 18.4 4 Este 13 Este 0 997.2 0.5 56
2020-03-12 10:00:00 15.8 8 Este 12 Este 0 997.2 0.8 64
2020-03-12 09:00:00 11 4 Este 8 Este 0 997.1 0.8 85
2020-03-12 08:00:00 8.4 6 Este 8 Este 0 996.7 0.5 89
2020-03-12 07:00:00 9.2 0 Calma 6 Noroeste 0 996.4 -0.3 89
2020-03-12 06:00:00 9.7 5 Este 9 Nordeste 0 996.3 -0.9 85
2020-03-12 05:00:00 10.3 3 Este 8 Este 0 996.2 -1.1 87
2020-03-12 04:00:00 11.3 2 Sudeste 6 Sudeste 0 996.7 -0.9 85
2020-03-12 03:00:00 12.4 5 Oeste 8 Sudeste 0 997.2 -0.7 81
2020-03-12 02:00:00 13.5 6 Sudeste 10 Sudeste 0 997.3 -0.5 81
2020-03-12 01:00:00 14.1 3 Sudeste 6 Oeste 0 997.6 -0.1 80
2020-03-12 00:00:00 15.9 6 Oeste 10 Oeste 0 997.9 0.3 78
2020-03-11 23:00:00 16.3 2 Sudeste 4 Sur 0 997.8 0.2 76
2020-03-11 22:00:00 18.2 0 Calma 9 Oeste 0 997.7 0.1 69
2020-03-11 21:00:00 19.4 3 Oeste 5 Oeste 0 997.6 -0.2 63
2020-03-11 20:00:00 21.2 0 Calma 9 Norte 0 997.6 -0.3 57
2020-03-11 19:00:00 22.9 8 Norte 11 Norte 0 997.6 -0.6 47
2020-03-11 18:00:00 24.8 8 Norte 16 Norte 0 997.8 -1.1 42
2020-03-11 17:00:00 26.7 11 Norte 17 Nordeste 0 997.9 -1.9 37
2020-03-11 16:00:00 27.3 11 Nordeste 18 Nordeste 0 998.2 -2.4 34
2020-03-11 15:00:00 27.6 12 Nordeste 20 Nordeste 0 998.9 -2.4 32
2020-03-11 14:00:00 27.2 13 Nordeste 21 Nordeste 0 999.8 -2 31
2020-03-11 13:00:00 25.7 10 Nordeste 19 Este 0 1000.6 -1.3 35
2020-03-11 12:00:00 22.6 12 Nordeste 17 Nordeste 0 1001.3 -0.3 42
2020-03-11 11:00:00 18.8 10 Este 15 Este 0 1001.8 0.3 55
2020-03-11 10:00:00 14.4 12 Este 17 Este 0 1001.9 0.5 68
2020-03-11 09:00:00 10.1 6 Este 10 Este 0 1001.6 0.2 83
2020-03-11 08:00:00 7 4 Este 5 Sudeste 0 1001.5 0.3 90
2020-03-11 07:00:00 7.7 4 Sudeste 6 Este 0 1001.4 0 91
2020-03-11 06:00:00 7.4 0 Calma 7 Noroeste 0 1001.4 -0.6 90
2020-03-11 05:00:00 7.8 0 Calma 5 Nordeste 0 1001.2 -1.2 88
2020-03-11 04:00:00 8.3 4 Norte 8 Noroeste 0 1001.4 -1.4 84
2020-03-11 03:00:00 9.1 0 Calma 4 Sudoeste 0 1002 -1 84
2020-03-11 02:00:00 10 0 Calma 7 Oeste 0 1002.4 -0.6 82
2020-03-11 01:00:00 11.2 4 Noroeste 7 Sur 0 1002.8 -0.2 77
2020-03-11 00:00:00 12.7 2 Sudeste 5 Noroeste 0 1003 0.2 73
2020-03-10 23:00:00 13.8 3 Norte 5 Sudoeste 0 1003 0.5 68
2020-03-10 22:00:00 16.4 3 Sudoeste 4 Oeste 0 1003 0.7 60
2020-03-10 21:00:00 17.8 0 Calma 5 Norte 0 1002.8 0.6 55
2020-03-10 20:00:00 20.1 5 Norte 10 Norte 0 1002.5 0 44
2020-03-10 19:00:00 22.9 9 Norte 11 Norte 0 1002.3 -0.6 38
2020-03-10 18:00:00 25.2 6 Norte 13 Noroeste 0 1002.2 -1.3 32
2020-03-10 17:00:00 26.1 5 Noroeste 11 Noroeste 0 1002.5 -1.8 28
2020-03-10 16:00:00 26.2 4 Norte 13 Oeste 0 1002.9 -2.3 25
2020-03-10 15:00:00 25.2 5 Norte 12 Nordeste 0 1003.5 -2.1 30
2020-03-10 14:00:00 23.3 5 Nordeste 15 Norte 0 1004.3 -1.5 35
2020-03-10 13:00:00 20.7 5 Nordeste 14 Norte 0 1005.2 -0.4 42
2020-03-10 12:00:00 18.6 4 Este 15 Este 0 1005.6 0.5 46
2020-03-10 11:00:00 15.6 4 Nordeste 11 Nordeste 0 1005.8 1 58
2020-03-10 10:00:00 11.7 6 Este 10 Este 0 1005.6 1.2 73
2020-03-10 09:00:00 8.2 4 Este 10 Este 0 1005.1 0.9 88
2020-03-10 08:00:00 5.1 7 Este 10 Este 0 1004.8 0.4 90
2020-03-10 07:00:00 6.7 2 Nordeste 5 Este 0 1004.4 0.1 90
2020-03-10 06:00:00 8 4 Sudoeste 9 Oeste 0 1004.2 -0.6 91
2020-03-10 05:00:00 8.9 6 Oeste 12 Oeste 0 1004.4 -0.5 88
2020-03-10 04:00:00 9.3 6 Oeste 12 Oeste 0 1004.3 -0.6 87
2020-03-10 03:00:00 10.2 8 Oeste 15 Oeste 0 1004.8 -0.2 82
2020-03-10 02:00:00 10.8 7 Oeste 13 Sudoeste 0 1004.9 0 81
2020-03-10 01:00:00 11.6 7 Oeste 14 Oeste 0 1004.9 0.6 77
2020-03-10 00:00:00 12.2 8 Oeste 16 Oeste 0 1005 1 74
2020-03-09 23:00:00 12.7 9 Oeste 18 Oeste 0 1004.9 1.2 70
2020-03-09 22:00:00 14 10 Oeste 18 Oeste 0 1004.3 0.8 63
2020-03-09 21:00:00 16.1 10 Oeste 19 Oeste 0 1004 0.7 53
2020-03-09 20:00:00 17.3 8 Oeste 17 Noroeste 0 1003.7 -0.2 44
2020-03-09 19:00:00 19.2 13 Noroeste 26 Noroeste 0 1003.5 -0.7 34
2020-03-09 18:00:00 20.9 15 Oeste 30 Noroeste 0 1003.3 -1.2 30
2020-03-09 17:00:00 21.9 16 Noroeste 31 Noroeste 0 1003.9 -1.4 23
2020-03-09 16:00:00 22.1 17 Noroeste 32 Noroeste 0 1004.2 -1.9 22
2020-03-09 15:00:00 21.7 22 Noroeste 37 Noroeste 0 1004.5 -2.2 26
2020-03-09 14:00:00 20.3 24 Noroeste 36 Noroeste 0 1005.3 -1.6 29
2020-03-09 13:00:00 18.3 15 Noroeste 27 Noroeste 0 1006.1 -0.4 44
2020-03-09 12:00:00 16 13 Noroeste 26 Noroeste 0 1006.7 0.3 55
2020-03-09 11:00:00 13.1 13 Noroeste 20 Noroeste 0 1006.9 1 78
2020-03-09 10:00:00 10.4 11 Oeste 17 Noroeste 0 1006.5 0.7 93
2020-03-09 09:00:00 8.7 4 Oeste 10 Oeste 0 1006.4 0.8 97
2020-03-09 08:00:00 7.9 7 Oeste 11 Oeste 0 1005.9 0.6 97
2020-03-09 07:00:00 8.5 4 Sudoeste 17 Oeste 0 1005.8 0.5 96
2020-03-09 06:00:00 8.9 9 Oeste 15 Oeste 0 1005.6 -0.4 97
2020-03-09 05:00:00 8.3 4 Oeste 13 Oeste 0 1005.3 -1 96
2020-03-09 04:00:00 9.4 8 Oeste 15 Oeste 0 1005.3 -0.9 96
2020-03-09 03:00:00 9.4 5 Oeste 17 Noroeste 0 1006 0.1 95
2020-03-09 02:00:00 9.1 10 Oeste 17 Oeste 0 1006.3 0.3 94
2020-03-09 01:00:00 9.9 7 Oeste 13 Oeste 0 1006.2 0.4 91
2020-03-09 00:00:00 10.9 6 Oeste 14 Oeste 0 1005.9 0.6 88
2020-03-08 23:00:00 10.8 7 Oeste 16 Oeste 0 1006 1.1 84
2020-03-08 22:00:00 12.6 8 Oeste 14 Oeste 0 1005.8 1.5 76
2020-03-08 21:00:00 13.1 7 Oeste 14 Oeste 0 1005.3 1.2 69
2020-03-08 20:00:00 14.2 6 Oeste 17 Oeste 0 1004.9 0.7 63
2020-03-08 19:00:00 15.6 12 Oeste 23 Noroeste 0 1004.3 0.2 56
2020-03-08 18:00:00 17.4 9 Oeste 19 Oeste 0 1004.1 -0.2 57
2020-03-08 17:00:00 17.5 11 Noroeste 25 Oeste 0 1004.2 -0.5 54
2020-03-08 16:00:00 18.3 10 Oeste 26 Oeste 0 1004.1 -1.3 42
2020-03-08 15:00:00 17.9 12 Oeste 22 Noroeste 0 1004.3 -1.4 47
2020-03-08 14:00:00 18 10 Oeste 21 Noroeste 0 1004.7 -1.3 42
2020-03-08 13:00:00 17.4 7 Oeste 18 Oeste 0 1005.4 -0.5 47
2020-03-08 12:00:00 15.6 5 Oeste 13 Oeste 0 1005.7 0.4 54
2020-03-08 11:00:00 11.9 3 Oeste 8 Noroeste 0 1006 1.4 68
2020-03-08 10:00:00 8.6 3 Nordeste 6 Norte 0 1005.9 1.6 79
2020-03-08 09:00:00 4.5 3 Este 4 Sudeste 0 1005.3 1.1 92
2020-03-08 08:00:00 2.1 0 Calma 4 Oeste 0 1004.6 0.8 94
2020-03-08 07:00:00 2.5 2 Sudoeste 14 Noroeste 0 1004.3 -0.2 93
2020-03-08 06:00:00 2.3 0 Calma 6 Noroeste 0 1004.2 -0.5 89
2020-03-08 05:00:00 3.8 2 Sudeste 6 Sudeste 0 1003.8 -0.8 89
2020-03-08 04:00:00 3.8 0 Calma 4 Este 0 1004.5 0 86
2020-03-08 03:00:00 4.8 0 Calma 4 Sudoeste 0 1004.7 0.2 85
2020-03-08 02:00:00 5.3 2 Noroeste 4 Sur 0 1004.6 -0.4 84
2020-03-08 01:00:00 5.6 2 Oeste 3 Oeste 0 1004.5 -0.3 78
2020-03-08 00:00:00 7.8 3 Este 5 Oeste 0 1004.5 0 74
2020-03-07 23:00:00 9.4 3 Sudoeste 7 Sudoeste 0 1005 1 67
2020-03-07 22:00:00 11.6 6 Sudoeste 8 Sudoeste 0 1004.8 1.1 58
2020-03-07 21:00:00 12.7 3 Sudoeste 6 Sudoeste 0 1004.5 0.9 53
2020-03-07 20:00:00 13.8 3 Norte 12 Noroeste 0 1004 0.3 48
2020-03-07 19:00:00 16.1 9 Noroeste 14 Noroeste 0 1003.7 -0.3 43
2020-03-07 18:00:00 18.2 10 Noroeste 16 Noroeste 0 1003.6 -1 35
2020-03-07 17:00:00 19.6 5 Noroeste 17 Norte 0 1003.7 -1.7 31
2020-03-07 16:00:00 19.2 5 Oeste 13 Norte 0 1004 -2 31
2020-03-07 15:00:00 18.5 8 Noroeste 14 Noroeste 0 1004.6 -1.8 34
2020-03-07 14:00:00 18 8 Sudeste 14 Sudeste 0 1005.4 -0.9 34
2020-03-07 13:00:00 16.4 6 Nordeste 13 Nordeste 0 1006 -0.2 41
2020-03-07 12:00:00 14.3 8 Nordeste 15 Este 0 1006.4 0.6 48
2020-03-07 11:00:00 12 9 Nordeste 17 Norte 0 1006.3 1.1 57
2020-03-07 10:00:00 9.8 7 Nordeste 9 Nordeste 0 1006.2 1.3 64
2020-03-07 09:00:00 7.1 3 Sur 12 Norte 0 1005.8 1.1 76
2020-03-07 08:00:00 5.7 10 Norte 13 Norte 0 1005.2 0.4 75
2020-03-07 07:00:00 6 9 Norte 17 Norte 0 1004.9 0.3 74
2020-03-07 06:00:00 6.7 6 Norte 16 Noroeste 0 1004.7 -0.5 71
2020-03-07 05:00:00 6.9 6 Sur 13 Sur 0 1004.8 -0.2 75
2020-03-07 04:00:00 7 5 Norte 9 Norte 0 1004.6 0.4 73
2020-03-07 03:00:00 8 5 Sudeste 12 Sur 0 1005.2 0.5 75
2020-03-07 02:00:00 8 5 Sudoeste 26 Oeste 0 1005 0.5 77
2020-03-07 01:00:00 7.6 17 Oeste 25 Noroeste 0 1004.2 0.4 80
2020-03-07 00:00:00 8.3 17 Noroeste 24 Noroeste 0 1004.7 1.8 77
2020-03-06 23:00:00 9 9 Oeste 23 Noroeste 0 1004.5 2 72
2020-03-06 22:00:00 9.6 12 Oeste 24 Noroeste 0 1003.8 2.4 70
2020-03-06 21:00:00 11.3 20 Noroeste 36 Noroeste 0 1002.9 2 64
2020-03-06 20:00:00 12.9 22 Noroeste 29 Noroeste 0 1002.5 1.7 56
2020-03-06 19:00:00 14.9 22 Noroeste 34 Noroeste 0 1001.4 0.3 49
2020-03-06 18:00:00 16.5 23 Noroeste 39 Noroeste 0 1000.9 -0.4 41
2020-03-06 17:00:00 17 27 Noroeste 39 Noroeste 0 1000.8 -0.9 44
2020-03-06 16:00:00 17.8 24 Noroeste 39 Noroeste 0 1001.1 -1.5 39
2020-03-06 15:00:00 17.6 29 Noroeste 45 Noroeste 0 1001.3 -1 36
2020-03-06 14:00:00 17.1 29 Noroeste 41 Noroeste 0 1001.7 -0.3 40
2020-03-06 13:00:00 16.5 28 Noroeste 51 Noroeste 0 1002.6 0.7 43
2020-03-06 12:00:00 14.8 24 Noroeste 40 Noroeste 0 1002.3 1.2 55
2020-03-06 11:00:00 13.4 23 Oeste 35 Noroeste 0 1002 2 59
2020-03-06 10:00:00 11.9 19 Oeste 33 Oeste 0 1001.9 2.5 71
2020-03-06 09:00:00 10.6 14 Oeste 28 Oeste 0 1001.1 1.6 81
2020-03-06 08:00:00 9.7 14 Oeste 30 Oeste 0 1000 0.5 89
2020-03-06 07:00:00 9.5 19 Oeste 32 Sudoeste 0 999.4 -0.4 90
2020-03-06 06:00:00 9.5 10 Sudoeste 24 Oeste 0 999.5 -0.7 91
2020-03-06 05:00:00 9.4 9 Sudoeste 23 Sudoeste 0 999.5 -1 90
2020-03-06 04:00:00 8.4 6 Sudoeste 16 Oeste 0 999.8 -0.7 90
2020-03-06 03:00:00 8.2 5 Sudoeste 20 Oeste 0 1000.2 -0.1 89
2020-03-06 02:00:00 9.4 13 Oeste 26 Oeste 0 1000.5 0.4 85
2020-03-06 01:00:00 9.4 11 Oeste 31 Oeste 0 1000.5 0.8 85
2020-03-06 00:00:00 9.8 14 Oeste 28 Oeste 0 1000.3 1.4 83
2020-03-05 23:00:00 10 15 Oeste 27 Oeste 0 1000.1 1.7 80
2020-03-05 22:00:00 11.1 21 Oeste 32 Oeste 0 999.7 2.1 74
2020-03-05 21:00:00 11.9 16 Oeste 31 Oeste 0 998.9 2.1 69
2020-03-05 20:00:00 12.8 15 Oeste 36 Oeste 0 998.4 2.2 65
2020-03-05 19:00:00 14.5 22 Oeste 39 Oeste 0 997.6 1.4 59
2020-03-05 18:00:00 15.9 26 Oeste 44 Noroeste 0 996.8 0.4 57
2020-03-05 17:00:00 17.7 25 Oeste 45 Oeste 0 996.2 -0.6 52
2020-03-05 16:00:00 17.8 30 Oeste 49 Noroeste 0 996.2 -1 50
2020-03-05 15:00:00 18.2 24 Oeste 47 Noroeste 0 996.4 -0.8 49
2020-03-05 14:00:00 16.6 24 Oeste 50 Oeste 0 996.8 0 53
2020-03-05 13:00:00 16.9 25 Oeste 48 Noroeste 0 997.2 1 54
2020-03-05 12:00:00 15.3 24 Oeste 50 Noroeste 0 997.2 2.3 66
2020-03-05 11:00:00 13.9 19 Oeste 43 Noroeste 0 996.8 1.8 77
2020-03-05 10:00:00 13.1 26 Oeste 55 Oeste 0 996.2 0.7 89
2020-03-05 09:00:00 13.8 8 Sudoeste 24 Sudoeste 0 994.9 -1 86
2020-03-05 08:00:00 13.4 7 Sudoeste 17 Sudoeste 0 995 -1.1 87
2020-03-05 07:00:00 13.4 8 Sudoeste 23 Sudoeste 0 995.5 -1.5 86
2020-03-05 06:00:00 13.3 7 Sudoeste 17 Sudoeste 0 995.9 -1.8 89
2020-03-05 05:00:00 13.2 7 Sudoeste 16 Sudoeste 0 996.1 -2.2 89
2020-03-05 04:00:00 13.6 5 Sudoeste 23 Oeste 0 997 -1.7 88
2020-03-05 03:00:00 13.5 5 Sudoeste 13 Oeste 0 997.7 -1.6 90
2020-03-05 02:00:00 13.7 3 Sudoeste 9 Oeste 0 998.3 -1.3 89
2020-03-05 01:00:00 14.2 8 Oeste 22 Oeste 0 998.7 -0.9 87
2020-03-05 00:00:00 14.3 6 Sudoeste 15 Oeste 0 999.3 -0.3 86
2020-03-04 23:00:00 15.4 6 Sudoeste 14 Oeste 0 999.6 0 79
2020-03-04 22:00:00 16 5 Oeste 9 Oeste 0 999.6 0.1 78
2020-03-04 21:00:00 16.4 5 Oeste 15 Oeste 0 999.6 0.1 74
2020-03-04 20:00:00 16.5 6 Oeste 16 Noroeste 0 999.6 -0.2 72
2020-03-04 19:00:00 17.8 10 Oeste 23 Oeste 0 999.5 -0.6 65
2020-03-04 18:00:00 18.6 15 Oeste 26 Oeste 0 999.5 -1.6 61
2020-03-04 17:00:00 19.8 14 Oeste 27 Oeste 0 999.8 -2.3 55
2020-03-04 16:00:00 19.8 14 Oeste 31 Noroeste 0 1000.1 -2.7 52
2020-03-04 15:00:00 19.6 16 Noroeste 29 Noroeste 0 1001.1 -2 52
2020-03-04 14:00:00 18.3 15 Oeste 26 Noroeste 0 1002.1 -1 56
2020-03-04 13:00:00 17.8 11 Oeste 24 Noroeste 0 1002.8 0.1 62
2020-03-04 12:00:00 16.1 15 Oeste 23 Noroeste 0 1003.1 0.9 72
2020-03-04 11:00:00 15.4 12 Oeste 23 Noroeste 0 1003.1 1.5 82
2020-03-04 10:00:00 14.5 11 Oeste 19 Sudoeste 0 1002.7 0.8 89
2020-03-04 09:00:00 13.4 6 Oeste 14 Sur 0 1002.2 0.2 96
2020-03-04 08:00:00 12.2 5 Sudoeste 14 Sudoeste 0 1001.6 -0.4 96
2020-03-04 07:00:00 12 5 Sudoeste 11 Oeste 0 1001.9 -0.3 97
2020-03-04 06:00:00 11.3 5 Sudoeste 11 Oeste 0 1002 -0.7 95
2020-03-04 05:00:00 11.6 5 Sudoeste 11 Oeste 0 1002 -0.7 95
2020-03-04 04:00:00 11.5 3 Sudoeste 7 Oeste 0 1002.2 -0.5 94
2020-03-04 03:00:00 12.3 3 Sur 8 Sudoeste 0 1002.7 0.2 91
2020-03-04 02:00:00 13.5 5 Oeste 17 Oeste 0 1002.7 0.5 90
2020-03-04 01:00:00 14.2 12 Oeste 24 Oeste 0 1002.7 0.8 88
2020-03-04 00:00:00 14.6 12 Oeste 25 Oeste 0 1002.5 1 86
2020-03-03 23:00:00 14.9 14 Oeste 24 Oeste 0 1002.2 1 86
2020-03-03 22:00:00 14.9 13 Oeste 22 Sudoeste 0 1001.9 1.4 86
2020-03-03 21:00:00 15.4 9 Oeste 17 Oeste 0 1001.5 1.5 85
2020-03-03 20:00:00 15.5 8 Oeste 16 Oeste 0 1001.2 1.8 85
2020-03-03 19:00:00 15.7 14 Oeste 44 Noroeste 0 1000.5 1.3 85
2020-03-03 18:00:00 17.2 22 Oeste 35 Noroeste 0 1000 0.3 75
2020-03-03 17:00:00 17.8 10 Oeste 30 Oeste 0 999.4 -1.2 74
2020-03-03 16:00:00 19.8 15 Oeste 34 Oeste 0 999.2 -1.5 67
2020-03-03 15:00:00 16.3 17 Oeste 36 Oeste 0 999.7 -1.1 82
2020-03-03 14:00:00 15.6 16 Sudoeste 36 Sudoeste 0 1000.6 -0.6 85
2020-03-03 13:00:00 15.9 13 Sudoeste 37 Sudoeste 0 1000.7 -0.8 77
2020-03-03 12:00:00 15 12 Sudoeste 37 Oeste 0 1000.8 -0.6 77
2020-03-03 11:00:00 14 11 Sudoeste 31 Oeste 0 1001.2 1.1 78
2020-03-03 10:00:00 11.8 9 Sudoeste 22 Sudoeste 0 1001.5 1.1 83
2020-03-03 09:00:00 10.1 11 Sudoeste 22 Sudoeste 0 1001.4 1.3 88
2020-03-03 08:00:00 8.6 6 Sudoeste 17 Sur 0 1000.1 0.1 90
2020-03-03 07:00:00 8.8 9 Sudoeste 17 Sudoeste 0 1000.4 0 88
2020-03-03 06:00:00 9 5 Sudoeste 15 Sudoeste 0 1000.1 -0.9 88
2020-03-03 05:00:00 8.6 5 Sudoeste 12 Sudoeste 0 1000 -0.8 90
2020-03-03 04:00:00 7.9 4 Sudoeste 12 Sur 0 1000.4 -0.4 87
2020-03-03 03:00:00 7.7 4 Sudoeste 10 Sudoeste 0 1001 -0.3 87
2020-03-03 02:00:00 8.5 5 Sudoeste 10 Sudoeste 0 1000.8 -0.1 85
2020-03-03 01:00:00 9.1 5 Sudoeste 19 Oeste 0 1000.8 0.1 82
2020-03-03 00:00:00 10.2 8 Oeste 21 Noroeste 0 1001.3 1.8 77
2020-03-02 23:00:00 10.6 7 Oeste 20 Oeste 0 1000.9 2.2 74
2020-03-02 22:00:00 10.3 8 Oeste 17 Oeste 0 1000.7 2.7 76
2020-03-02 21:00:00 10.8 13 Oeste 24 Oeste 0 999.5 2.6 72
2020-03-02 20:00:00 12.5 7 Oeste 27 Noroeste 0 998.7 2.3 62
2020-03-02 19:00:00 14 15 Oeste 39 Oeste 0 998 2.2 55
2020-03-02 18:00:00 15.7 23 Oeste 48 Noroeste 0 996.9 1.3 46
2020-03-02 17:00:00 15.7 30 Noroeste 48 Noroeste 0 996.4 0.9 51
2020-03-02 16:00:00 16.8 29 Oeste 49 Oeste 0 995.8 0.5 48
2020-03-02 15:00:00 16.2 23 Oeste 47 Oeste 0 995.6 0.6 51
2020-03-02 14:00:00 16.1 31 Oeste 48 Oeste 0 995.5 1.2 58
2020-03-02 13:00:00 16.7 27 Oeste 53 Oeste 0 995.3 2 54
2020-03-02 12:00:00 15.9 19 Oeste 55 Noroeste 0 995 3.1 61
2020-03-02 11:00:00 14.7 28 Oeste 54 Noroeste 0 994.3 3.8 69
2020-03-02 10:00:00 14.9 17 Oeste 37 Oeste 0 993.3 3.6 72
2020-03-02 09:00:00 13.8 18 Oeste 41 Oeste 0 991.9 3.1 81
2020-03-02 08:00:00 14.6 21 Oeste 42 Oeste 0 990.5 2 83
2020-03-02 07:00:00 14.4 15 Oeste 38 Oeste 0 989.7 0.4 92
2020-03-02 06:00:00 14.3 16 Sudoeste 40 Oeste 0.2 988.8 -2.2 92
2020-03-02 05:00:00 14.2 15 Sudoeste 44 Oeste 0 988.5 -1.6 91
2020-03-02 04:00:00 14.1 14 Sudoeste 36 Sur 0.8 989.3 -1.5 92
2020-03-02 03:00:00 14 14 Sudoeste 36 Sudoeste 1 991 -1 93
2020-03-02 02:00:00 14 14 Sudoeste 36 Oeste 0.6 990.1 -2.4 92
2020-03-02 01:00:00 14.2 12 Sudoeste 36 Sudoeste 0 990.8 -1.9 89
2020-03-02 00:00:00 14 14 Sudoeste 36 Oeste 1 992 -0.3 90
2020-03-01 23:00:00 15.2 13 Sudoeste 39 Sur 0 992.5 -0.1 78
2020-03-01 22:00:00 15.6 12 Sudoeste 33 Sur 0 992.7 0.2 76
2020-03-01 21:00:00 15.5 12 Sudoeste 30 Sudoeste 0 992.3 -0.7 80
2020-03-01 20:00:00 15.8 10 Sudoeste 31 Sudoeste 0 992.6 -0.8 77
2020-03-01 19:00:00 16.1 14 Sudoeste 31 Sudoeste 0 992.5 -1.9 77
2020-03-01 18:00:00 16.9 10 Sudoeste 32 Sudoeste 0 993 -1.7 76
2020-03-01 17:00:00 17.5 11 Sudoeste 31 Sudoeste 0 993.4 -2.1 77
2020-03-01 16:00:00 16 11 Sudoeste 33 Sudoeste 0 994.4 -1.7 87
2020-03-01 15:00:00 17.1 10 Sudoeste 32 Sudoeste 0.2 994.7 -1.8 83
2020-03-01 14:00:00 16.1 11 Sudoeste 30 Sudoeste 0 995.5 -1 81
2020-03-01 13:00:00 15.8 12 Sudoeste 32 Sudoeste 0 996.1 -0.1 80
2020-03-01 12:00:00 16 12 Sudoeste 31 Sudoeste 0 996.5 0.3 78
2020-03-01 11:00:00 14.4 13 Sudoeste 30 Sudoeste 0 996.5 0.5 83
2020-03-01 10:00:00 13.2 10 Sudoeste 27 Sudoeste 0 996.2 0.4 87
2020-03-01 09:00:00 12.4 8 Sudoeste 23 Sudoeste 0 996.2 0.7 90
2020-03-01 08:00:00 11.9 8 Sudoeste 19 Oeste 0 996 0.1 92
2020-03-01 07:00:00 11.2 6 Sudoeste 20 Sudoeste 0 995.8 -0.3 93
2020-03-01 06:00:00 11.5 6 Sudoeste 20 Sudoeste 0 995.5 -0.7 90
2020-03-01 05:00:00 11.8 7 Sudoeste 18 Oeste 0 995.9 -0.4 91
2020-03-01 04:00:00 11.8 7 Sudoeste 21 Oeste 0 996.1 -0.2 92
2020-03-01 03:00:00 11.9 7 Sudoeste 18 Oeste 0 996.2 -0.6 92
2020-03-01 02:00:00 12 8 Sudoeste 18 Sudoeste 0 996.3 -0.2 90
2020-03-01 01:00:00 12.1 5 Sudoeste 17 Oeste 0 996.3 0.1 88
2020-03-01 00:00:00 12.2 6 Sudoeste 18 Sudoeste 0 996.8 0.7 85
2020-02-29 23:00:00 12.3 4 Sudoeste 19 Oeste 0 996.5 1.3 80
2020-02-29 22:00:00 12.9 9 Oeste 20 Oeste 0 996.2 1.5 74
2020-02-29 21:00:00 13.4 9 Oeste 19 Oeste 0 996.1 1.8 72
2020-02-29 20:00:00 14.3 8 Oeste 14 Oeste 0 995.2 1.1 76
2020-02-29 19:00:00 15.6 8 Oeste 23 Oeste 0 994.7 0.5 67
2020-02-29 18:00:00 16.6 12 Oeste 23 Oeste 0 994.3 -0.1 76
2020-02-29 17:00:00 16.4 14 Oeste 28 Oeste 0 994.1 -0.6 80
2020-02-29 16:00:00 15.4 14 Oeste 29 Oeste 0.2 994.2 -1.1 89
2020-02-29 15:00:00 13.9 13 Oeste 37 Oeste 1.4 994.4 -0.8 90
2020-02-29 14:00:00 17 14 Sudoeste 40 Sudoeste 0 994.7 -0.6 79
2020-02-29 13:00:00 16.2 14 Sudoeste 44 Sur 0 995.3 0 76
2020-02-29 12:00:00 16.9 14 Sudoeste 39 Sudoeste 0 995.2 0 69
2020-02-29 11:00:00 15.6 13 Sudoeste 33 Sudoeste 0 995.3 -0.2 72
2020-02-29 10:00:00 14.3 14 Sudoeste 29 Sudoeste 0 995.3 -0.4 77
2020-02-29 09:00:00 12.2 10 Sur 19 Sur 0 995.2 -0.5 85
2020-02-29 08:00:00 11.8 9 Sur 18 Sudoeste 0 995.5 -0.2 87
2020-02-29 07:00:00 11.3 7 Sur 13 Sur 0 995.7 -0.3 88
2020-02-29 06:00:00 10.9 6 Sur 17 Sudoeste 0 995.7 -0.7 88
2020-02-29 05:00:00 9.9 5 Sudoeste 17 Sudoeste 0 995.7 -0.3 91
2020-02-29 04:00:00 9.6 4 Oeste 18 Oeste 0 996 0.1 90
2020-02-29 03:00:00 9.7 11 Oeste 26 Oeste 0 996.4 0.3 90
2020-02-29 02:00:00 9.6 6 Sudoeste 15 Sudoeste 0 996 0 80
2020-02-29 01:00:00 10.1 6 Sudoeste 16 Sur 0 995.9 0.6 74
2020-02-29 00:00:00 11.7 4 Sudoeste 15 Oeste 0 996.1 1.1 68
2020-02-28 23:00:00 13.7 10 Oeste 17 Oeste 0 996 1.3 62
2020-02-28 22:00:00 14.8 7 Sudoeste 19 Sur 0 995.3 0.8 61
2020-02-28 21:00:00 15.5 6 Sudoeste 12 Sur 0 995 0.4 55
2020-02-28 20:00:00 17.1 5 Sur 8 Sudoeste 0 994.7 -0.2 53
2020-02-28 19:00:00 18.9 4 Oeste 13 Noroeste 0 994.5 -0.8 46
2020-02-28 18:00:00 20.4 8 Oeste 18 Noroeste 0 994.6 -1.7 44
2020-02-28 17:00:00 22 14 Noroeste 19 Noroeste 0 994.9 -2.8 39
2020-02-28 16:00:00 22.6 6 Norte 13 Nordeste 0 995.3 -3.8 35
2020-02-28 15:00:00 21.4 9 Nordeste 21 Este 0 996.3 -3.5 37
2020-02-28 14:00:00 19.7 10 Este 17 Este 0 997.7 -2.7 44
2020-02-28 13:00:00 18 10 Este 17 Nordeste 0 999.1 -1.5 48
2020-02-28 12:00:00 15.1 9 Este 15 Este 0 999.8 -0.8 58
2020-02-28 11:00:00 11.7 9 Este 15 Este 0 1000.4 0.2 73
2020-02-28 10:00:00 7.4 8 Este 12 Este 0 1000.6 0.6 90
2020-02-28 09:00:00 3.7 3 Nordeste 4 Nordeste 0 1000.6 0.4 94
2020-02-28 08:00:00 3.1 2 Sudeste 4 Este 0 1000.2 -0.5 94
2020-02-28 07:00:00 3.6 3 Sudeste 7 Este 0 1000 -1.3 92
2020-02-28 06:00:00 5.5 2 Oeste 5 Sur 0 1000.2 -1.7 93
2020-02-28 05:00:00 6 3 Sudeste 5 Noroeste 0 1000.7 -1.7 92
2020-02-28 04:00:00 6.9 2 Oeste 6 Oeste 0 1001.3 -1.3 85
2020-02-28 03:00:00 9.1 3 Oeste 9 Oeste 0 1001.9 -0.9 82
2020-02-28 02:00:00 9.6 4 Sudoeste 7 Oeste 0 1002.4 -0.3 82
2020-02-28 01:00:00 10.3 5 Oeste 8 Oeste 0 1002.6 0 81
2020-02-28 00:00:00 11.2 5 Sudoeste 9 Sur 0 1002.8 0.2 76